createdAt,value
2018-04-24T00:01:18.279Z,12.30
2018-04-24T00:03:44.597Z,14.50
2018-04-24T00:06:10.906Z,12.80
2018-04-24T00:08:37.211Z,14.30
2018-04-24T00:11:04.445Z,13.70
2018-04-24T00:13:31.460Z,13.70
2018-04-24T00:15:58.490Z,14.00
2018-04-24T00:18:27.130Z,13.40
2018-04-24T00:20:53.307Z,13.30
2018-04-24T00:23:19.452Z,13.50
2018-04-24T00:25:45.865Z,13.60
2018-04-24T00:28:12.216Z,12.90
2018-04-24T00:30:38.868Z,12.80
2018-04-24T00:33:05.909Z,12.80
2018-04-24T00:35:32.035Z,12.80
2018-04-24T00:37:58.143Z,12.80
2018-04-24T00:40:24.257Z,12.70
2018-04-24T00:42:50.569Z,13.00
2018-04-24T00:45:16.882Z,12.80
2018-04-24T00:47:43.200Z,12.80
2018-04-24T00:50:09.317Z,12.80
2018-04-24T00:52:35.614Z,12.90
2018-04-24T00:55:01.942Z,12.80
2018-04-24T00:57:28.029Z,12.80
2018-04-24T00:59:54.330Z,12.50
2018-04-24T01:02:21.647Z,12.00
2018-04-24T01:04:47.736Z,12.80
2018-04-24T01:07:14.063Z,12.10
2018-04-24T01:09:40.342Z,12.70
2018-04-24T01:12:06.673Z,12.70
2018-04-24T01:14:32.983Z,12.90
2018-04-24T01:16:59.324Z,12.70
2018-04-24T01:19:25.643Z,12.70
2018-04-24T01:21:51.982Z,12.60
2018-04-24T01:24:19.088Z,13.40
2018-04-24T01:26:46.167Z,13.90
2018-04-24T01:29:12.486Z,13.80
2018-04-24T01:31:38.784Z,13.70
2018-04-24T01:34:05.096Z,13.40
2018-04-24T01:36:32.147Z,14.20
2018-04-24T01:38:59.004Z,13.70
2018-04-24T01:41:25.624Z,14.10
2018-04-24T01:43:51.754Z,13.40
2018-04-24T01:46:18.075Z,13.30
2018-04-24T01:48:44.714Z,13.90
2018-04-24T01:51:11.024Z,12.50
2018-04-24T01:53:37.362Z,13.10
2018-04-24T01:56:03.701Z,13.70
2018-04-24T01:58:30.002Z,12.90
2018-04-24T02:00:56.294Z,12.40
2018-04-24T02:03:22.617Z,12.50
2018-04-24T02:05:48.972Z,12.70
2018-04-24T02:08:16.145Z,12.40
2018-04-24T02:10:42.250Z,12.50
2018-04-24T02:13:08.353Z,11.90
2018-04-24T02:15:34.535Z,12.70
2018-04-24T02:18:00.850Z,12.50
2018-04-24T02:20:27.138Z,12.40
2018-04-24T02:22:54.184Z,12.50
2018-04-24T02:25:21.022Z,12.30
2018-04-24T02:27:47.319Z,12.40
2018-04-24T02:30:13.646Z,12.90
2018-04-24T02:32:40.509Z,14.10
2018-04-24T02:35:07.352Z,13.60
2018-04-24T02:37:34.228Z,14.00
2018-04-24T02:40:00.337Z,14.10
2018-04-24T02:42:26.455Z,15.00
2018-04-24T02:44:52.579Z,14.40
2018-04-24T02:47:18.695Z,14.80
2018-04-24T02:49:44.851Z,14.10
2018-04-24T02:52:10.957Z,14.60
2018-04-24T02:54:37.274Z,14.90
2018-04-24T02:57:03.638Z,14.40
2018-04-24T02:59:29.964Z,13.60
2018-04-24T03:01:56.278Z,13.10
2018-04-24T03:04:22.605Z,13.70
2018-04-24T03:06:49.727Z,13.70
2018-04-24T03:09:16.049Z,13.40
2018-04-24T03:11:42.526Z,13.20
2018-04-24T03:14:08.740Z,14.10
2018-04-24T03:16:35.059Z,14.60
2018-04-24T03:19:01.355Z,14.90
2018-04-24T03:21:27.663Z,14.80
2018-04-24T03:23:53.943Z,15.20
2018-04-24T03:26:20.547Z,14.70
2018-04-24T03:28:46.875Z,15.00
2018-04-24T03:31:13.155Z,14.90
2018-04-24T03:33:39.465Z,14.90
2018-04-24T03:36:05.799Z,15.00
2018-04-24T03:38:32.116Z,14.80
2018-04-24T03:40:58.417Z,15.30
2018-04-24T03:43:24.707Z,14.90
2018-04-24T03:45:51.027Z,15.10
2018-04-24T03:48:18.507Z,14.90
2018-04-24T03:50:44.828Z,14.90
2018-04-24T03:53:11.884Z,15.30
2018-04-24T03:55:38.242Z,15.30
2018-04-24T03:58:04.586Z,15.50
2018-04-24T04:00:31.743Z,16.00
2018-04-24T04:02:58.782Z,16.70
2018-04-24T04:05:24.886Z,16.00
2018-04-24T04:07:51.016Z,15.60
2018-04-24T04:10:17.119Z,16.00
2018-04-24T04:12:43.980Z,15.70
2018-04-24T04:15:10.865Z,16.70
2018-04-24T04:17:49.391Z,16.20
2018-04-24T04:20:27.866Z,16.20
2018-04-24T04:23:06.179Z,15.70
2018-04-24T04:25:32.486Z,15.40
2018-04-24T04:27:58.770Z,15.50
2018-04-24T04:30:25.873Z,15.90
2018-04-24T04:32:52.595Z,15.40
2018-04-24T04:35:19.575Z,15.70
2018-04-24T04:37:46.623Z,16.20
2018-04-24T04:40:12.896Z,16.70
2018-04-24T04:42:39.182Z,15.90
2018-04-24T04:45:05.465Z,15.50
2018-04-24T04:47:32.515Z,15.60
2018-04-24T04:49:58.609Z,15.60
2018-04-24T04:52:24.722Z,15.60
2018-04-24T04:54:51.784Z,16.30
2018-04-24T04:57:17.895Z,16.40
2018-04-24T04:59:44.757Z,15.80
2018-04-24T05:02:11.582Z,16.00
2018-04-24T05:04:37.668Z,16.00
2018-04-24T05:07:04.696Z,16.00
2018-04-24T05:09:31.534Z,17.10
2018-04-24T05:11:57.700Z,16.50
2018-04-24T05:14:23.746Z,17.00
2018-04-24T05:16:50.594Z,15.60
2018-04-24T05:19:17.451Z,16.20
2018-04-24T05:21:44.328Z,16.20
2018-04-24T05:24:10.437Z,16.20
2018-04-24T05:26:36.563Z,15.70
2018-04-24T05:29:02.644Z,15.80
2018-04-24T05:31:28.751Z,15.90
2018-04-24T05:33:55.587Z,15.60
2018-04-24T05:36:21.679Z,15.60
2018-04-24T05:38:47.786Z,16.00
2018-04-24T05:41:14.662Z,16.00
2018-04-24T05:43:41.477Z,15.80
2018-04-24T05:46:07.561Z,15.80
2018-04-24T05:48:33.657Z,14.50
2018-04-24T05:50:59.759Z,14.40
2018-04-24T05:53:25.868Z,13.90
2018-04-24T05:55:51.991Z,15.20
2018-04-24T05:58:21.503Z,14.20
2018-04-24T06:00:47.769Z,14.00
2018-04-24T06:03:13.868Z,13.50
2018-04-24T06:05:39.956Z,13.60
2018-04-24T06:08:06.048Z,13.50
2018-04-24T06:10:32.144Z,13.00
2018-04-24T06:12:58.256Z,13.70
2018-04-24T06:15:24.356Z,12.90
2018-04-24T06:17:50.482Z,12.30
2018-04-24T06:20:16.569Z,13.10
2018-04-24T06:22:42.695Z,13.10
2018-04-24T06:25:09.919Z,13.30
2018-04-24T06:27:36.014Z,13.40
2018-04-24T06:30:02.117Z,12.70
2018-04-24T06:32:28.217Z,13.10
2018-04-24T06:34:54.322Z,13.10
2018-04-24T06:37:20.423Z,13.70
2018-04-24T06:39:46.685Z,13.60
2018-04-24T06:42:13.570Z,12.50
2018-04-24T06:44:40.384Z,13.80
2018-04-24T06:47:06.475Z,13.70
2018-04-24T06:49:32.570Z,13.00
2018-04-24T06:51:59.434Z,12.50
2018-04-24T06:54:25.538Z,12.80
2018-04-24T06:56:51.750Z,12.50
2018-04-24T06:59:17.838Z,12.40
2018-04-24T07:01:45.699Z,12.70
2018-04-24T07:04:11.907Z,12.50
2018-04-24T07:06:37.999Z,12.00
2018-04-24T07:09:04.899Z,10.80
2018-04-24T07:11:31.035Z,10.70
2018-04-24T07:13:58.314Z,11.30
2018-04-24T07:16:24.406Z,11.10
2018-04-24T07:18:51.260Z,12.50
2018-04-24T07:21:18.108Z,12.00
2018-04-24T07:23:44.250Z,12.20
2018-04-24T07:26:10.402Z,11.60
2018-04-24T07:28:38.212Z,11.80
2018-04-24T07:31:04.540Z,11.90
2018-04-24T07:33:30.865Z,11.60
2018-04-24T07:35:57.436Z,11.10
2018-04-24T07:38:24.513Z,10.60
2018-04-24T07:40:50.888Z,11.00
2018-04-24T07:43:17.231Z,11.00
2018-04-24T07:45:43.546Z,11.40
2018-04-24T07:48:09.891Z,11.50
2018-04-24T07:50:36.888Z,11.70
2018-04-24T07:53:03.256Z,11.50
2018-04-24T07:55:31.032Z,11.60
2018-04-24T07:57:57.295Z,11.50
2018-04-24T08:00:24.147Z,10.80
2018-04-24T08:02:50.993Z,11.30
2018-04-24T08:05:17.147Z,11.30
2018-04-24T08:07:44.004Z,11.30
2018-04-24T08:10:22.927Z,11.80
2018-04-24T08:12:49.062Z,11.80
2018-04-24T08:15:15.154Z,11.80
2018-04-24T08:17:41.253Z,11.60
2018-04-24T08:20:07.365Z,11.80
2018-04-24T08:22:40.893Z,11.00
2018-04-24T08:25:07.004Z,11.80
2018-04-24T08:27:33.872Z,11.10
2018-04-24T08:30:00.729Z,11.20
2018-04-24T08:32:27.556Z,10.60
2018-04-24T08:34:53.652Z,10.60
2018-04-24T08:37:24.978Z,10.50
2018-04-24T08:39:51.111Z,10.40
2018-04-24T08:42:17.204Z,10.40
2018-04-24T08:44:43.337Z,10.30
2018-04-24T08:47:09.452Z,10.40
2018-04-24T08:49:35.547Z,10.00
2018-04-24T08:52:02.399Z,10.20
2018-04-24T08:54:32.273Z,10.10
2018-04-24T08:56:59.120Z,9.30
2018-04-24T08:59:25.261Z,9.30
2018-04-24T09:01:51.436Z,9.60
2018-04-24T09:04:18.366Z,9.10
2018-04-24T09:06:44.465Z,9.20
2018-04-24T09:09:11.307Z,10.70
2018-04-24T09:11:39.023Z,10.70
2018-04-24T09:14:05.182Z,10.80
2018-04-24T09:16:31.226Z,9.00
2018-04-24T09:18:57.322Z,9.10
2018-04-24T09:21:23.447Z,10.10
2018-04-24T09:23:49.763Z,9.90
2018-04-24T09:26:16.611Z,9.20
2018-04-24T09:28:45.222Z,9.20
2018-04-24T09:31:11.331Z,8.40
2018-04-24T09:33:37.541Z,9.20
2018-04-24T09:36:03.595Z,9.20
2018-04-24T09:38:30.435Z,9.30
2018-04-24T09:40:56.537Z,9.20
2018-04-24T09:43:22.647Z,9.90
2018-04-24T09:45:51.164Z,9.90
2018-04-24T09:48:17.353Z,10.10
2018-04-24T09:50:43.505Z,10.10
2018-04-24T09:53:09.640Z,11.00
2018-04-24T09:55:35.735Z,10.60
2018-04-24T09:58:01.843Z,10.70
2018-04-24T10:00:37.353Z,11.60
2018-04-24T10:03:06.349Z,12.10
2018-04-24T10:05:32.470Z,12.10
2018-04-24T10:07:59.311Z,12.70
2018-04-24T10:10:25.412Z,12.60
2018-04-24T10:12:51.529Z,12.30
2018-04-24T10:15:18.359Z,13.10
2018-04-24T10:20:16.328Z,13.40
2018-04-24T10:22:42.458Z,13.40
2018-04-24T10:25:08.543Z,13.70
2018-04-24T10:27:34.629Z,14.20
2018-04-24T10:30:00.769Z,15.00
2018-04-24T10:32:26.855Z,15.90
2018-04-24T10:34:52.943Z,15.60
2018-04-24T10:37:24.223Z,15.40
2018-04-24T10:39:50.263Z,15.30
2018-04-24T10:42:16.384Z,15.10
2018-04-24T10:44:42.500Z,15.30
2018-04-24T10:47:09.534Z,16.20
2018-04-24T10:49:35.635Z,15.60
2018-04-24T10:52:01.749Z,15.60
2018-04-24T10:54:28.598Z,16.40
2018-04-24T10:56:59.359Z,16.10
2018-04-24T10:59:25.535Z,16.50
2018-04-24T11:01:52.315Z,16.50
2018-04-24T11:04:18.411Z,16.40
2018-04-24T11:06:44.571Z,16.50
2018-04-24T11:09:11.363Z,16.20
2018-04-24T11:11:37.454Z,16.20
2018-04-24T11:14:04.351Z,16.60
2018-04-24T11:16:35.619Z,17.10
2018-04-24T11:19:01.707Z,17.00
2018-04-24T11:21:27.911Z,17.70
2018-04-24T11:23:53.959Z,18.40
2018-04-24T11:26:20.160Z,19.50
2018-04-24T11:28:46.284Z,20.10
2018-04-24T11:31:12.407Z,19.70
2018-04-24T11:33:43.867Z,19.20
2018-04-24T11:36:09.993Z,18.70
2018-04-24T11:38:36.128Z,17.90
2018-04-24T11:41:02.242Z,18.20
2018-04-24T11:43:28.344Z,17.70
2018-04-24T11:45:54.682Z,18.00
2018-04-24T11:48:21.516Z,18.40
2018-04-24T11:50:47.993Z,18.40
2018-04-24T11:53:20.365Z,18.60
2018-04-24T11:55:46.519Z,18.90
2018-04-24T11:58:12.607Z,18.10
2018-04-24T12:00:38.691Z,18.00
2018-04-24T12:03:04.854Z,18.50
2018-04-24T12:05:31.694Z,18.80
2018-04-24T12:07:57.803Z,18.80
2018-04-24T12:10:23.931Z,18.80
2018-04-24T12:12:54.107Z,18.10
2018-04-24T12:15:20.210Z,18.10
2018-04-24T12:17:46.301Z,17.80
2018-04-24T12:20:12.478Z,17.60
2018-04-24T12:22:38.567Z,17.70
2018-04-24T12:25:04.707Z,17.00
2018-04-24T12:27:30.823Z,17.70
2018-04-24T12:29:57.008Z,17.20
2018-04-24T12:32:23.105Z,17.20
2018-04-24T12:34:50.475Z,17.90
2018-04-24T12:37:16.772Z,17.20
2018-04-24T12:39:43.066Z,17.40
2018-04-24T12:42:10.106Z,17.60
2018-04-24T12:44:37.049Z,18.30
2018-04-24T12:47:03.923Z,17.90
2018-04-24T12:49:35.027Z,17.90
2018-04-24T12:52:01.232Z,17.60
2018-04-24T12:54:27.423Z,18.60
2018-04-24T12:56:53.545Z,16.30
2018-04-24T12:59:19.656Z,16.20
2018-04-24T13:01:45.780Z,15.80
2018-04-24T13:04:11.886Z,15.90
2018-04-24T13:06:37.991Z,16.50
2018-04-24T13:09:05.939Z,16.20
2018-04-24T13:11:32.250Z,16.80
2018-04-24T13:13:58.576Z,17.30
2018-04-24T13:16:25.059Z,18.00
2018-04-24T13:18:51.386Z,16.90
2018-04-24T13:21:17.711Z,16.90
2018-04-24T13:23:44.084Z,16.90
2018-04-24T13:26:12.232Z,16.30
2018-04-24T13:28:39.293Z,15.60
2018-04-24T13:31:05.429Z,15.60
2018-04-24T13:33:31.777Z,15.40
2018-04-24T13:35:58.095Z,15.00
2018-04-24T13:38:25.200Z,14.60
2018-04-24T13:40:51.564Z,14.90
2018-04-24T13:43:21.311Z,14.30
2018-04-24T13:45:47.628Z,14.50
2018-04-24T13:48:14.724Z,12.70
2018-04-24T13:50:41.044Z,12.70
2018-04-24T13:53:07.915Z,12.60
2018-04-24T13:55:34.095Z,12.60
2018-04-24T13:58:05.874Z,11.50
2018-04-24T14:00:32.015Z,11.50
2018-04-24T14:02:58.972Z,10.80
2018-04-24T14:05:25.151Z,10.80
2018-04-24T14:07:52.015Z,10.50
2018-04-24T14:10:18.884Z,10.60
2018-04-24T14:12:46.018Z,10.70
2018-04-24T14:15:13.843Z,10.10
2018-04-24T14:17:39.965Z,9.30
2018-04-24T14:20:06.098Z,9.70
2018-04-24T14:22:32.196Z,8.90
2018-04-24T14:24:58.319Z,9.10
2018-04-24T14:27:24.480Z,8.60
2018-04-24T14:29:50.613Z,8.20
2018-04-24T14:32:16.731Z,8.80
2018-04-24T14:34:46.087Z,7.60
2018-04-24T14:37:12.932Z,7.20
2018-04-24T14:39:39.040Z,7.20
2018-04-24T14:42:05.163Z,7.30
2018-04-24T14:44:31.301Z,7.50
2018-04-24T14:46:57.436Z,6.60
2018-04-24T14:49:28.476Z,6.10
2018-04-24T14:51:54.992Z,6.80
2018-04-24T14:54:21.112Z,6.80
2018-04-24T14:56:47.221Z,5.40
2018-04-24T14:59:13.335Z,5.40
2018-04-24T15:01:39.515Z,6.20
2018-04-24T15:04:06.414Z,5.90
2018-04-24T15:06:40.891Z,5.90
2018-04-24T15:09:06.999Z,4.50
2018-04-24T15:11:33.143Z,5.40
2018-04-24T15:13:59.295Z,5.40
2018-04-24T15:16:25.455Z,5.50
2018-04-24T15:18:51.583Z,3.40
2018-04-24T15:21:17.713Z,3.90
2018-04-24T15:23:43.941Z,3.70
2018-04-24T15:26:10.216Z,4.60
2018-04-24T15:28:36.429Z,4.90
2018-04-24T15:31:02.645Z,4.50
2018-04-24T15:33:28.821Z,3.50
2018-04-24T15:35:54.961Z,4.80
2018-04-24T15:38:21.225Z,4.10
2018-04-24T15:40:47.414Z,4.30
2018-04-24T15:43:15.917Z,4.50
2018-04-24T15:45:42.228Z,4.80
2018-04-24T15:48:08.751Z,4.90
2018-04-24T15:50:35.448Z,4.40
2018-04-24T15:53:01.875Z,4.50
2018-04-24T15:55:28.453Z,5.20
2018-04-24T15:57:54.603Z,5.20
2018-04-24T16:00:20.908Z,5.10
2018-04-24T16:02:47.229Z,3.90
2018-04-24T16:05:18.027Z,3.80
2018-04-24T16:07:44.343Z,4.00
2018-04-24T16:10:10.646Z,4.40
2018-04-24T16:12:36.940Z,4.00
2018-04-24T16:15:03.314Z,4.60
2018-04-24T16:17:29.696Z,4.20
2018-04-24T16:19:56.027Z,5.40
2018-04-24T16:22:26.521Z,4.80
2018-04-24T16:24:52.859Z,5.40
2018-04-24T16:27:19.977Z,5.10
2018-04-24T16:29:46.281Z,4.90
2018-04-24T16:32:12.546Z,5.40
2018-04-24T16:34:38.854Z,4.50
2018-04-24T16:37:05.166Z,4.60
2018-04-24T16:39:32.663Z,4.30
2018-04-24T16:41:59.688Z,5.20
2018-04-24T16:44:26.766Z,5.50
2018-04-24T16:46:53.616Z,3.80
2018-04-24T16:49:19.792Z,3.90
2018-04-24T16:51:45.900Z,4.10
2018-04-24T16:54:17.028Z,3.80
2018-04-24T16:56:43.879Z,3.80
2018-04-24T16:59:10.730Z,3.80
2018-04-24T17:01:36.895Z,3.80
2018-04-24T17:04:03.753Z,4.40
2018-04-24T17:06:30.759Z,4.30
2018-04-24T17:08:56.876Z,4.30
2018-04-24T17:11:26.531Z,4.60
2018-04-24T17:13:53.381Z,3.20
2018-04-24T17:16:19.499Z,3.20
2018-04-24T17:18:45.601Z,3.80
2018-04-24T17:21:11.721Z,4.30
2018-04-24T17:23:37.861Z,3.70
2018-04-24T17:26:03.976Z,3.00
2018-04-24T17:28:36.022Z,4.50
2018-04-24T17:31:02.129Z,4.40
2018-04-24T17:33:28.345Z,4.10
2018-04-24T17:35:54.477Z,3.50
2018-04-24T17:38:21.322Z,3.60
2018-04-24T17:40:47.443Z,3.60
2018-04-24T17:43:13.536Z,4.10
2018-04-24T17:45:41.957Z,4.10
2018-04-24T17:48:08.079Z,3.90
2018-04-24T17:50:34.169Z,4.40
2018-04-24T17:53:00.346Z,4.20
2018-04-24T17:55:26.488Z,4.60
2018-04-24T17:57:52.582Z,4.60
2018-04-24T18:00:18.684Z,4.00
2018-04-24T18:02:48.558Z,4.00
2018-04-24T18:05:14.651Z,4.10
2018-04-24T18:07:40.742Z,4.20
2018-04-24T18:10:06.860Z,3.80
2018-04-24T18:12:33.723Z,4.50
2018-04-24T18:15:00.560Z,4.80
2018-04-24T18:17:26.679Z,4.80
2018-04-24T18:19:52.787Z,4.70
2018-04-24T18:22:20.889Z,5.10
2018-04-24T18:24:47.012Z,4.90
2018-04-24T18:27:13.171Z,4.80
2018-04-24T18:29:39.304Z,5.40
2018-04-24T18:32:05.474Z,5.50
2018-04-24T18:34:31.602Z,5.40
2018-04-24T18:36:57.740Z,5.40
2018-04-24T18:39:25.829Z,5.30
2018-04-24T18:41:53.652Z,4.80
2018-04-24T18:44:19.776Z,5.20
2018-04-24T18:46:45.935Z,5.30
2018-04-24T18:49:12.157Z,5.30
2018-04-24T18:51:38.353Z,5.40
2018-04-24T18:54:04.700Z,5.30
2018-04-24T18:56:31.111Z,5.30
2018-04-24T18:58:57.595Z,5.40
2018-04-24T19:01:24.474Z,6.20
2018-04-24T19:03:50.632Z,6.20
2018-04-24T19:06:16.908Z,6.00
2018-04-24T19:08:43.173Z,5.80
2018-04-24T19:11:09.750Z,5.80
2018-04-24T19:13:36.029Z,5.50
2018-04-24T19:16:02.162Z,5.80
2018-04-24T19:18:34.354Z,5.90
2018-04-24T19:21:00.716Z,6.60
2018-04-24T19:23:27.021Z,5.90
2018-04-24T19:25:53.356Z,6.60
2018-04-24T19:28:19.669Z,6.50
2018-04-24T19:30:46.011Z,6.70
2018-04-24T19:33:12.432Z,7.20
2018-04-24T19:35:38.731Z,6.90
2018-04-24T19:38:05.071Z,7.20
2018-04-24T19:40:37.612Z,7.60
2018-04-24T19:43:04.098Z,7.50
2018-04-24T19:45:31.171Z,8.10
2018-04-24T19:47:57.584Z,8.00
2018-04-24T19:50:24.991Z,8.10
2018-04-24T19:52:51.343Z,8.10
2018-04-24T19:55:23.744Z,8.30
2018-04-24T19:57:50.352Z,9.00
2018-04-24T20:00:17.538Z,9.50
2018-04-24T20:02:43.849Z,9.60
2018-04-24T20:05:10.166Z,9.20
2018-04-24T20:07:36.483Z,9.10
2018-04-24T20:10:04.306Z,9.40
2018-04-24T20:12:30.747Z,9.30
2018-04-24T20:14:57.083Z,9.80
2018-04-24T20:17:33.164Z,10.00
2018-04-24T20:19:59.280Z,10.10
2018-04-24T20:22:25.402Z,9.70
2018-04-24T20:24:51.616Z,10.30
2018-04-24T20:27:18.853Z,10.10
2018-04-24T20:29:45.801Z,10.00
2018-04-24T20:32:12.101Z,10.00
2018-04-24T20:34:38.275Z,10.20
2018-04-24T20:37:04.618Z,10.20
2018-04-24T20:39:31.053Z,10.70
2018-04-24T20:41:57.368Z,10.40
2018-04-24T20:44:23.686Z,10.90
2018-04-24T20:46:50.231Z,11.10
2018-04-24T20:49:16.556Z,11.50
2018-04-24T20:51:42.866Z,12.40
2018-04-24T20:54:08.992Z,12.80
2018-04-24T20:56:35.316Z,12.80
2018-04-24T20:59:02.391Z,14.20
2018-04-24T21:01:28.519Z,14.10
2018-04-24T21:03:55.381Z,15.20
2018-04-24T21:06:21.591Z,15.20
2018-04-24T21:08:47.859Z,15.50
2018-04-24T21:11:14.195Z,14.80
2018-04-24T21:13:41.253Z,16.30
2018-04-24T21:16:08.327Z,15.90
2018-04-24T21:18:34.656Z,16.00
2018-04-24T21:21:01.698Z,16.10
2018-04-24T21:23:27.924Z,16.10
2018-04-24T21:25:54.174Z,15.90
2018-04-24T21:28:20.303Z,16.00
2018-04-24T21:30:46.428Z,16.40
2018-04-24T21:33:12.548Z,17.00
2018-04-24T21:35:38.715Z,16.90
2018-04-24T21:38:05.081Z,16.30
2018-04-24T21:40:31.431Z,16.50
2018-04-24T21:42:58.562Z,15.80
2018-04-24T21:45:24.716Z,15.90
2018-04-24T21:47:50.836Z,16.80
2018-04-24T21:50:17.190Z,16.00
2018-04-24T21:52:44.921Z,16.60
2018-04-24T21:55:11.227Z,15.70
2018-04-24T21:57:37.551Z,16.10
2018-04-24T22:00:03.897Z,15.00
2018-04-24T22:02:30.339Z,15.20
2018-04-24T22:04:56.692Z,15.20
2018-04-24T22:07:23.228Z,15.20
2018-04-24T22:09:49.724Z,15.20
2018-04-24T22:12:16.137Z,15.20
2018-04-24T22:14:42.588Z,15.20
2018-04-24T22:17:09.652Z,15.90
2018-04-24T22:19:36.801Z,15.20
2018-04-24T22:22:02.902Z,15.20
2018-04-24T22:24:29.946Z,15.30
2018-04-24T22:26:56.040Z,15.30
2018-04-24T22:29:22.291Z,15.30
2018-04-24T22:31:48.614Z,16.30
2018-04-24T22:34:16.060Z,15.90
2018-04-24T22:36:42.383Z,16.50
2018-04-24T22:39:08.722Z,16.70
2018-04-24T22:41:35.079Z,16.20
2018-04-24T22:44:02.539Z,17.20
2018-04-24T22:46:28.865Z,17.20
2018-04-24T22:48:55.218Z,17.70
2018-04-24T22:51:21.544Z,17.60
2018-04-24T22:53:48.586Z,17.80
2018-04-24T22:56:15.447Z,17.10
2018-04-24T22:58:41.550Z,17.00
2018-04-24T23:01:07.687Z,17.00
2018-04-24T23:03:33.814Z,16.70
2018-04-24T23:06:00.140Z,16.80
2018-04-24T23:08:27.182Z,18.10
2018-04-24T23:11:06.471Z,18.60
2018-04-24T23:13:44.995Z,18.50
2018-04-24T23:16:23.635Z,18.50
2018-04-24T23:19:02.111Z,18.80
2018-04-24T23:21:30.099Z,18.10
2018-04-24T23:23:56.222Z,18.00
2018-04-24T23:26:22.335Z,18.20
2018-04-24T23:28:48.475Z,18.50
2018-04-24T23:31:14.828Z,18.80
2018-04-24T23:33:41.158Z,18.60
2018-04-24T23:36:07.446Z,19.00
2018-04-24T23:38:34.535Z,19.00
2018-04-24T23:41:00.866Z,18.40
2018-04-24T23:43:28.035Z,17.50
2018-04-24T23:45:54.371Z,17.40
2018-04-24T23:48:21.467Z,17.80
2018-04-24T23:50:47.792Z,18.10
2018-04-24T23:53:14.899Z,17.70
2018-04-24T23:55:41.203Z,17.70
2018-04-24T23:58:08.264Z,17.60
